Time;durP1;ratioP1;P1;durP2;ratioP2;P2;SDS_P1;SDS_P2;PMS_P1;PMS_P2;Temp;Humidity;BMP_temperature;BMP_pressure;BME280_temperature;BME280_humidity;BME280_pressure;Samples;Min_cycle;Max_cycle;Signal;HPM_P1;HPM_P2
2023/09/29 01:31:04;;;;;;;;;;;20.20;99.90;;;;;;2631478;46;20191;-83
2023/09/29 01:33:34;;;;;;;;;;;18.10;99.90;;;;;;2630448;54;19950;-83
2023/09/29 01:36:05;;;;;;;;;;;18.00;99.90;;;;;;2629827;47;19977;-83
2023/09/29 01:38:35;;;;;;;;;;;18.00;99.90;;;;;;2629654;54;19974;-83
2023/09/29 01:41:05;;;;;;;;;;;17.90;99.90;;;;;;2629748;47;19983;-83
2023/09/29 01:43:35;;;;;;;;;;;17.90;99.90;;;;;;2629461;47;19950;-84
2023/09/29 01:46:10;;;;;;;;;;;18.00;99.90;;;;;;2628915;47;19951;-84
2023/09/29 01:48:40;;;;;;;;;;;17.90;99.90;;;;;;2628977;46;19953;-83
2023/09/29 01:51:11;;;;;;;;;;;17.90;99.90;;;;;;2628528;47;20002;-84
2023/09/29 01:53:42;;;;;;;;;;;17.80;99.90;;;;;;2628691;46;19954;-84
2023/09/29 01:56:12;;;;;;;;;;;17.80;99.90;;;;;;2629461;47;19939;-83
2023/09/29 01:58:44;;;;;;;;;;;18.10;99.90;;;;;;2628828;54;19950;-83
2023/09/29 02:01:17;;;;;;;;;;;19.00;99.90;;;;;;2629367;47;19953;-84
2023/09/29 02:09:20;;;;;;;;;;;17.70;99.90;;;;;;2615799;54;19993;-71
2023/09/29 02:11:50;;;;;;;;;;;17.80;99.90;;;;;;2616384;54;19947;-75
2023/09/29 02:14:20;;;;;;;;;;;17.80;99.90;;;;;;2617282;39;20342;-72
2023/09/29 02:16:53;;;;;;;;;;;17.80;99.90;;;;;;2616992;47;19946;-72
2023/09/29 02:19:22;;;;;;;;;;;17.80;99.90;;;;;;2616645;54;19946;-73
2023/09/29 02:24:34;;;;;;;;;;;17.80;99.90;;;;;;2632248;51;20033;-86
2023/09/29 02:27:04;;;;;;;;;;;17.90;99.90;;;;;;2616155;54;19945;-73
2023/09/29 02:29:34;;;;;;;;;;;17.90;99.90;;;;;;2615839;54;20396;-71
2023/09/29 02:32:06;;;;;;;;;;;17.90;99.90;;;;;;2616304;54;19954;-71
2023/09/29 02:34:36;;;;;;;;;;;17.90;99.90;;;;;;2616586;54;19946;-71
2023/09/29 02:37:07;;;;;;;;;;;17.90;99.90;;;;;;2615847;54;19939;-70
2023/09/29 02:39:37;;;;;;;;;;;17.90;99.90;;;;;;2616160;47;19939;-71
2023/09/29 02:42:07;;;;;;;;;;;17.90;99.90;;;;;;2616618;39;20343;-71
2023/09/29 02:44:38;;;;;;;;;;;17.90;99.90;;;;;;2616184;54;19946;-72
2023/09/29 02:47:10;;;;;;;;;;;17.90;99.90;;;;;;2616119;54;19938;-71
2023/09/29 02:49:40;;;;;;;;;;;18.00;99.90;;;;;;2616169;47;19939;-71
2023/09/29 02:52:10;;;;;;;;;;;18.00;99.90;;;;;;2616516;54;19966;-71
2023/09/29 02:54:39;;;;;;;;;;;18.00;99.90;;;;;;2617204;39;20373;-71
2023/09/29 02:57:09;;;;;;;;;;;18.00;99.90;;;;;;2616273;54;20337;-72
2023/09/29 02:59:39;;;;;;;;;;;18.00;99.90;;;;;;2617268;48;20322;-70
2023/09/29 03:02:12;;;;;;;;;;;18.00;99.90;;;;;;2616199;47;19946;-71
2023/09/29 03:04:43;;;;;;;;;;;18.00;99.90;;;;;;2617107;54;19947;-71
2023/09/29 03:07:13;;;;;;;;;;;18.10;99.90;;;;;;2609951;54;19951;-71
2023/09/29 03:09:42;;;;;;;;;;;18.10;99.90;;;;;;2615693;54;19970;-72
2023/09/29 03:12:13;;;;;;;;;;;18.30;99.90;;;;;;2615864;54;19954;-72
2023/09/29 03:14:42;;;;;;;;;;;18.10;99.90;;;;;;2616595;39;20370;-71
2023/09/29 03:17:15;;;;;;;;;;;18.10;99.90;;;;;;2616509;54;19946;-72
2023/09/29 03:19:44;;;;;;;;;;;18.10;99.90;;;;;;2615905;54;20449;-72
2023/09/29 03:22:14;;;;;;;;;;;18.20;99.90;;;;;;2616654;54;19946;-71
2023/09/29 03:24:43;;;;;;;;;;;18.20;99.90;;;;;;2616132;53;19947;-72
2023/09/29 03:27:13;;;;;;;;;;;18.20;99.90;;;;;;2615974;47;19946;-71
2023/09/29 03:29:43;;;;;;;;;;;18.20;99.90;;;;;;2615699;54;19938;-72
2023/09/29 03:32:15;;;;;;;;;;;18.20;99.90;;;;;;2617721;39;20434;-70
2023/09/29 03:34:44;;;;;;;;;;;18.20;99.90;;;;;;2616518;54;20445;-71
2023/09/29 03:37:14;;;;;;;;;;;18.20;99.90;;;;;;2616112;47;19966;-72
2023/09/29 03:39:44;;;;;;;;;;;18.20;99.90;;;;;;2616029;47;19947;-72
2023/09/29 03:42:13;;;;;;;;;;;18.20;99.90;;;;;;2616619;47;19938;-71
2023/09/29 03:44:44;;;;;;;;;;;18.20;99.90;;;;;;2616165;54;19946;-71
2023/09/29 03:47:16;;;;;;;;;;;18.20;99.90;;;;;;2616705;54;19963;-71
2023/09/29 03:49:46;;;;;;;;;;;18.20;99.90;;;;;;2615825;47;19946;-73
2023/09/29 03:52:16;;;;;;;;;;;18.30;99.90;;;;;;2616612;54;19947;-71
2023/09/29 03:54:45;;;;;;;;;;;18.30;99.90;;;;;;2616061;54;19946;-70
2023/09/29 03:57:15;;;;;;;;;;;18.30;99.90;;;;;;2616644;54;19939;-71
2023/09/29 03:59:45;;;;;;;;;;;18.30;99.90;;;;;;2615885;50;20496;-70
2023/09/29 04:02:17;;;;;;;;;;;18.30;99.90;;;;;;2616065;47;19950;-71
2023/09/29 04:04:47;;;;;;;;;;;18.30;99.90;;;;;;2615701;54;20532;-74
2023/09/29 04:07:17;;;;;;;;;;;18.30;99.90;;;;;;2615071;47;19954;-71
2023/09/29 04:09:49;;;;;;;;;;;18.30;99.90;;;;;;2616347;54;19939;-73
2023/09/29 04:12:19;;;;;;;;;;;18.30;99.90;;;;;;2616524;54;19946;-72
2023/09/29 04:14:48;;;;;;;;;;;18.30;99.90;;;;;;2615767;47;19939;-73
2023/09/29 04:17:21;;;;;;;;;;;18.30;99.90;;;;;;2616185;54;19938;-72
2023/09/29 04:19:50;;;;;;;;;;;18.30;99.90;;;;;;2615327;54;19946;-71
2023/09/29 04:22:21;;;;;;;;;;;18.30;99.90;;;;;;2616152;54;19947;-72
2023/09/29 04:24:50;;;;;;;;;;;18.30;99.90;;;;;;2616690;47;19939;-73
2023/09/29 04:27:20;;;;;;;;;;;18.30;99.90;;;;;;2615783;47;19953;-71
2023/09/29 04:29:50;;;;;;;;;;;17.90;99.90;;;;;;2615532;54;20473;-72
2023/09/29 04:32:22;;;;;;;;;;;18.30;99.90;;;;;;2615912;54;19947;-70
2023/09/29 04:34:52;;;;;;;;;;;18.30;99.90;;;;;;2616877;54;19999;-70
2023/09/29 04:37:21;;;;;;;;;;;18.30;99.90;;;;;;2615810;39;20357;-71
2023/09/29 04:39:51;;;;;;;;;;;18.30;99.90;;;;;;2615626;47;20045;-69
2023/09/29 04:42:21;;;;;;;;;;;18.30;99.90;;;;;;2615768;54;19947;-70
2023/09/29 04:44:50;;;;;;;;;;;18.30;99.90;;;;;;2615216;54;20445;-69
2023/09/29 04:47:22;;;;;;;;;;;18.30;99.90;;;;;;2615967;54;19939;-68
2023/09/29 04:49:52;;;;;;;;;;;18.30;99.90;;;;;;2613930;54;19947;-69
2023/09/29 04:52:22;;;;;;;;;;;18.30;99.90;;;;;;2616098;39;20357;-70
2023/09/29 04:54:52;;;;;;;;;;;18.30;99.90;;;;;;2615949;47;19951;-70
2023/09/29 04:57:21;;;;;;;;;;;18.30;99.90;;;;;;2615926;54;19953;-70
2023/09/29 04:59:52;;;;;;;;;;;18.30;99.90;;;;;;2614214;47;19946;-67
2023/09/29 05:02:29;;;;;;;;;;;18.20;99.90;;;;;;2616609;54;19954;-68
2023/09/29 05:04:59;;;;;;;;;;;18.20;99.90;;;;;;2616120;47;19946;-66
2023/09/29 05:07:29;;;;;;;;;;;18.20;99.90;;;;;;2614676;54;19946;-65
2023/09/29 05:09:58;;;;;;;;;;;18.30;99.90;;;;;;2615037;47;19947;-65
2023/09/29 05:12:30;;;;;;;;;;;18.30;99.90;;;;;;2615739;54;19946;-68
2023/09/29 05:14:59;;;;;;;;;;;18.20;99.90;;;;;;2620784;47;19943;-78
2023/09/29 05:17:32;;;;;;;;;;;18.60;99.90;;;;;;2627648;54;19954;-81
2023/09/29 05:20:19;;;;;;;;;;;18.30;99.90;;;;;;2628486;47;19942;-80
2023/09/29 05:22:50;;;;;;;;;;;18.30;99.90;;;;;;2628044;54;19943;-79
2023/09/29 05:25:19;;;;;;;;;;;18.20;99.90;;;;;;2628030;47;19991;-78
2023/09/29 05:27:49;;;;;;;;;;;18.20;99.90;;;;;;2628746;47;19979;-79
2023/09/29 05:30:20;;;;;;;;;;;18.20;99.90;;;;;;2627425;54;19939;-78
2023/09/29 05:32:52;;;;;;;;;;;18.20;99.90;;;;;;2623056;51;19987;-76
2023/09/29 05:35:22;;;;;;;;;;;18.20;99.90;;;;;;2617059;54;19951;-75
2023/09/29 05:37:52;;;;;;;;;;;18.20;99.90;;;;;;2617425;54;19945;-76
2023/09/29 05:40:22;;;;;;;;;;;18.20;99.90;;;;;;2618623;47;19991;-76
2023/09/29 05:42:52;;;;;;;;;;;18.20;99.90;;;;;;2618252;54;20068;-77
2023/09/29 05:45:23;;;;;;;;;;;18.20;99.90;;;;;;2618087;54;19964;-77
2023/09/29 05:47:56;;;;;;;;;;;18.20;99.90;;;;;;2617934;47;19950;-77
2023/09/29 05:50:26;;;;;;;;;;;18.20;99.90;;;;;;2619903;47;19946;-79
2023/09/29 05:52:56;;;;;;;;;;;18.20;99.90;;;;;;2619714;47;19946;-77
2023/09/29 05:55:39;;;;;;;;;;;18.20;99.90;;;;;;2619544;47;19953;-77
2023/09/29 05:58:09;;;;;;;;;;;18.20;99.90;;;;;;2622727;47;20462;-77
2023/09/29 06:00:43;;;;;;;;;;;18.20;99.90;;;;;;2625864;47;19971;-80
2023/09/29 06:03:17;;;;;;;;;;;18.20;99.90;;;;;;2620548;47;19953;-80
2023/09/29 06:09:19;;;;;;;;;;;18.30;99.90;;;;;;2618071;46;20001;-77
2023/09/29 06:11:57;;;;;;;;;;;18.30;99.90;;;;;;2617325;46;19966;-78
2023/09/29 06:14:31;;;;;;;;;;;18.40;99.90;;;;;;2617252;47;19954;-77
2023/09/29 06:17:01;;;;;;;;;;;18.30;99.90;;;;;;2617099;54;20568;-77
2023/09/29 06:19:34;;;;;;;;;;;18.40;99.90;;;;;;2617931;47;19938;-78
2023/09/29 06:22:04;;;;;;;;;;;18.40;99.90;;;;;;2619810;47;19946;-75
2023/09/29 06:24:36;;;;;;;;;;;18.40;99.90;;;;;;2620103;54;19958;-75
2023/09/29 06:27:06;;;;;;;;;;;18.40;99.90;;;;;;2619664;47;20018;-75
2023/09/29 06:29:36;;;;;;;;;;;18.40;99.90;;;;;;2615003;54;19994;-75
2023/09/29 06:32:06;;;;;;;;;;;18.50;99.90;;;;;;2615267;47;19939;-75
2023/09/29 06:34:38;;;;;;;;;;;18.50;99.90;;;;;;2614148;54;19971;-75
2023/09/29 06:37:08;;;;;;;;;;;18.60;99.90;;;;;;2615204;31;20396;-74
2023/09/29 06:39:39;;;;;;;;;;;18.60;99.90;;;;;;2608442;47;19946;-73
2023/09/29 06:42:09;;;;;;;;;;;18.60;99.90;;;;;;2612876;54;19958;-72
2023/09/29 06:44:39;;;;;;;;;;;18.60;99.90;;;;;;2612108;54;19954;-74
2023/09/29 06:47:09;;;;;;;;;;;18.70;99.90;;;;;;2609123;47;20088;-74
2023/09/29 06:49:41;;;;;;;;;;;18.70;99.90;;;;;;2608493;54;20050;-73
2023/09/29 06:52:11;;;;;;;;;;;18.70;99.90;;;;;;2609535;47;19939;-73
2023/09/29 06:54:41;;;;;;;;;;;18.70;99.90;;;;;;2609597;54;20197;-73
2023/09/29 06:57:11;;;;;;;;;;;18.80;99.90;;;;;;2610349;50;20026;-72
2023/09/29 06:59:41;;;;;;;;;;;18.80;99.90;;;;;;2609597;54;19954;-73
2023/09/29 07:02:11;;;;;;;;;;;18.80;99.90;;;;;;2611002;54;19953;-75
2023/09/29 07:04:44;;;;;;;;;;;18.90;99.90;;;;;;2610582;54;20001;-73
2023/09/29 07:07:14;;;;;;;;;;;18.90;99.90;;;;;;2610950;54;19946;-72
2023/09/29 07:09:44;;;;;;;;;;;19.00;99.90;;;;;;2611053;39;20371;-73
2023/09/29 07:12:14;;;;;;;;;;;19.00;99.90;;;;;;2610501;54;20009;-74
2023/09/29 07:14:44;;;;;;;;;;;19.00;99.90;;;;;;2610243;54;19946;-73
2023/09/29 07:17:14;;;;;;;;;;;19.10;99.90;;;;;;2610147;54;19958;-75
2023/09/29 07:19:47;;;;;;;;;;;19.10;99.90;;;;;;2610401;54;20080;-73
2023/09/29 07:22:19;;;;;;;;;;;19.50;99.90;;;;;;2610697;46;19958;-73
2023/09/29 07:24:50;;;;;;;;;;;19.20;99.90;;;;;;2609033;54;19954;-72
2023/09/29 07:27:26;;;;;;;;;;;19.30;99.90;;;;;;2611112;47;19955;-72
2023/09/29 07:29:56;;;;;;;;;;;19.30;99.90;;;;;;2609708;54;19946;-73
2023/09/29 07:32:26;;;;;;;;;;;19.30;99.90;;;;;;2611098;47;19945;-76
2023/09/29 07:34:59;;;;;;;;;;;19.30;99.90;;;;;;2609332;54;20007;-73
2023/09/29 07:37:29;;;;;;;;;;;19.30;99.90;;;;;;2608884;54;19954;-74
2023/09/29 07:40:00;;;;;;;;;;;19.40;99.90;;;;;;2608221;47;19946;-74
2023/09/29 07:42:30;;;;;;;;;;;19.40;99.90;;;;;;2609064;54;19958;-73
2023/09/29 07:45:00;;;;;;;;;;;19.40;99.90;;;;;;2608319;54;19970;-73
2023/09/29 07:50:35;;;;;;;;;;;19.40;99.90;;;;;;2605832;54;19958;-71
2023/09/29 07:53:05;;;;;;;;;;;19.50;99.90;;;;;;2608856;54;19946;-73
2023/09/29 07:55:35;;;;;;;;;;;19.40;99.90;;;;;;2609274;39;20711;-73
2023/09/29 07:58:06;;;;;;;;;;;19.40;99.90;;;;;;2608315;47;19970;-74
2023/09/29 08:00:36;;;;;;;;;;;19.40;99.90;;;;;;2610293;39;20347;-74
2023/09/29 08:03:06;;;;;;;;;;;19.50;99.90;;;;;;2610737;39;20278;-73
2023/09/29 08:05:39;;;;;;;;;;;19.60;99.90;;;;;;2606224;54;19951;-64
2023/09/29 08:08:11;;;;;;;;;;;19.60;99.90;;;;;;2605824;54;19979;-65
2023/09/29 08:10:41;;;;;;;;;;;19.60;99.90;;;;;;2604918;54;19946;-66
2023/09/29 08:13:11;;;;;;;;;;;19.70;99.90;;;;;;2607000;39;20353;-65
2023/09/29 08:15:41;;;;;;;;;;;19.70;99.90;;;;;;2605447;54;19991;-63
2023/09/29 08:18:12;;;;;;;;;;;19.80;99.90;;;;;;2605678;47;19947;-64
2023/09/29 08:20:46;;;;;;;;;;;19.90;99.90;;;;;;2603997;47;20444;-65
2023/09/29 08:23:16;;;;;;;;;;;20.00;99.90;;;;;;2605355;54;19950;-64
2023/09/29 08:25:46;;;;;;;;;;;20.10;99.90;;;;;;2605034;54;19950;-69
2023/09/29 08:28:24;;;;;;;;;;;20.20;99.90;;;;;;2605478;54;19958;-67
2023/09/29 08:30:54;;;;;;;;;;;20.30;99.90;;;;;;2605214;39;20373;-64
2023/09/29 08:33:27;;;;;;;;;;;20.40;99.90;;;;;;2605105;54;19946;-64
2023/09/29 08:36:22;;;;;;;;;;;20.40;99.90;;;;;;2604175;47;19953;-67
2023/09/29 08:39:02;;;;;;;;;;;20.40;99.90;;;;;;2604035;47;19982;-67
2023/09/29 08:41:36;;;;;;;;;;;20.50;99.90;;;;;;2604642;47;19954;-64
2023/09/29 08:44:12;;;;;;;;;;;20.60;99.90;;;;;;2604298;54;19950;-66
2023/09/29 08:46:43;;;;;;;;;;;20.80;99.90;;;;;;2610414;49;20471;-65
2023/09/29 08:49:13;;;;;;;;;;;20.80;99.90;;;;;;2616241;54;19954;-66
2023/09/29 08:51:46;;;;;;;;;;;20.90;99.90;;;;;;2616113;54;19946;-64
2023/09/29 08:54:17;;;;;;;;;;;21.00;99.90;;;;;;2615935;47;20037;-64
2023/09/29 08:56:48;;;;;;;;;;;21.10;99.90;;;;;;2616403;54;19951;-64
2023/09/29 08:59:18;;;;;;;;;;;21.10;99.90;;;;;;2616021;53;19955;-65
2023/09/29 09:01:49;;;;;;;;;;;21.10;99.90;;;;;;2615930;54;19945;-66
2023/09/29 09:04:19;;;;;;;;;;;21.20;99.90;;;;;;2616426;46;19961;-64
2023/09/29 09:06:52;;;;;;;;;;;21.20;99.90;;;;;;2615642;54;19954;-64
2023/09/29 09:09:24;;;;;;;;;;;21.20;99.90;;;;;;2615412;54;19946;-65
2023/09/29 09:11:53;;;;;;;;;;;21.30;99.90;;;;;;2615632;54;19954;-66
2023/09/29 09:14:23;;;;;;;;;;;21.30;99.90;;;;;;2615965;54;19954;-68
2023/09/29 09:16:52;;;;;;;;;;;21.40;99.90;;;;;;2615577;54;19946;-68
2023/09/29 09:19:22;;;;;;;;;;;21.40;99.90;;;;;;2614777;54;19953;-70
2023/09/29 09:21:54;;;;;;;;;;;21.50;99.90;;;;;;2615395;47;19950;-69
2023/09/29 09:24:25;;;;;;;;;;;21.50;99.90;;;;;;2617225;47;19939;-69
2023/09/29 09:27:03;;;;;;;;;;;21.50;99.90;;;;;;2616921;54;19953;-68
2023/09/29 09:29:33;;;;;;;;;;;21.50;99.90;;;;;;2615490;54;19953;-68
2023/09/29 09:32:05;;;;;;;;;;;21.50;99.90;;;;;;2617300;54;19962;-68
2023/09/29 09:34:36;;;;;;;;;;;21.50;99.90;;;;;;2616310;54;19951;-69
2023/09/29 09:37:11;;;;;;;;;;;21.50;99.90;;;;;;2617745;47;19947;-71
2023/09/29 09:39:42;;;;;;;;;;;21.60;99.90;;;;;;2616948;54;19945;-69
2023/09/29 09:42:13;;;;;;;;;;;21.60;99.90;;;;;;2617260;54;19946;-68
2023/09/29 09:44:43;;;;;;;;;;;21.70;99.90;;;;;;2618380;46;19965;-69
2023/09/29 09:47:14;;;;;;;;;;;21.70;99.90;;;;;;2618101;54;20064;-69
2023/09/29 09:49:48;;;;;;;;;;;21.80;99.90;;;;;;2617915;54;19950;-69
2023/09/29 09:52:25;;;;;;;;;;;21.80;99.90;;;;;;2618921;39;20036;-69
2023/09/29 09:54:58;;;;;;;;;;;21.90;99.90;;;;;;2619017;31;20436;-67
2023/09/29 09:57:31;;;;;;;;;;;22.00;99.90;;;;;;2616760;54;19946;-68
2023/09/29 10:00:04;;;;;;;;;;;22.10;99.90;;;;;;2616918;54;19947;-68
2023/09/29 10:02:39;;;;;;;;;;;22.20;99.90;;;;;;2617429;47;19939;-67
2023/09/29 10:05:12;;;;;;;;;;;22.40;99.90;;;;;;2616030;47;19939;-69
2023/09/29 10:07:51;;;;;;;;;;;22.40;99.90;;;;;;2617077;54;19946;-68
2023/09/29 10:10:31;;;;;;;;;;;22.50;99.90;;;;;;2616968;54;19987;-68
2023/09/29 10:13:01;;;;;;;;;;;22.50;99.90;;;;;;2617351;47;20477;-68
2023/09/29 10:15:32;;;;;;;;;;;22.60;99.90;;;;;;2616995;54;19943;-68
2023/09/29 10:18:03;;;;;;;;;;;22.60;99.90;;;;;;2617560;54;19939;-68
2023/09/29 10:20:36;;;;;;;;;;;22.60;99.90;;;;;;2615725;50;20448;-68
2023/09/29 10:23:09;;;;;;;;;;;22.70;99.90;;;;;;2617035;54;19946;-68
2023/09/29 10:25:39;;;;;;;;;;;22.70;99.90;;;;;;2616962;54;19945;-68
2023/09/29 10:28:12;;;;;;;;;;;22.70;99.90;;;;;;2616748;54;19953;-68
2023/09/29 10:30:42;;;;;;;;;;;22.80;99.90;;;;;;2614761;54;19947;-69
2023/09/29 10:33:13;;;;;;;;;;;22.80;99.90;;;;;;2616448;54;20002;-68
2023/09/29 10:35:46;;;;;;;;;;;22.80;99.90;;;;;;2616707;54;19951;-67
2023/09/29 10:38:29;;;;;;;;;;;22.90;99.90;;;;;;2617745;39;20338;-68
2023/09/29 10:41:00;;;;;;;;;;;23.10;99.90;;;;;;2616105;54;19953;-67
2023/09/29 10:43:48;;;;;;;;;;;23.20;99.90;;;;;;2618497;54;19946;-66
2023/09/29 10:46:20;;;;;;;;;;;23.30;99.90;;;;;;2617508;47;19938;-68
2023/09/29 10:48:51;;;;;;;;;;;23.40;99.90;;;;;;2617317;54;20034;-68
2023/09/29 10:51:24;;;;;;;;;;;23.50;99.90;;;;;;2617429;39;20642;-68
2023/09/29 10:53:57;;;;;;;;;;;23.50;99.90;;;;;;2617076;54;19987;-68
2023/09/29 10:56:27;;;;;;;;;;;23.60;99.90;;;;;;2616829;54;19954;-68
2023/09/29 10:58:58;;;;;;;;;;;23.60;99.90;;;;;;2616676;54;20501;-67
2023/09/29 11:01:37;;;;;;;;;;;23.70;99.90;;;;;;2616682;47;20457;-67
2023/09/29 11:04:09;;;;;;;;;;;23.90;99.90;;;;;;2616087;54;19961;-67
2023/09/29 11:06:43;;;;;;;;;;;24.10;99.90;;;;;;2616091;54;19954;-67
2023/09/29 11:09:16;;;;;;;;;;;24.20;99.90;;;;;;2617424;54;20790;-67
2023/09/29 11:11:46;;;;;;;;;;;24.40;99.90;;;;;;2618276;54;20060;-67
2023/09/29 11:14:16;;;;;;;;;;;24.50;99.90;;;;;;2618329;39;20413;-68
2023/09/29 11:16:56;;;;;;;;;;;24.60;99.90;;;;;;2616924;54;20085;-68
2023/09/29 11:19:30;;;;;;;;;;;24.70;99.90;;;;;;2616947;54;19947;-68
2023/09/29 11:22:02;;;;;;;;;;;24.80;99.90;;;;;;2617531;54;20454;-70
2023/09/29 11:24:44;;;;;;;;;;;24.90;99.90;;;;;;2617516;54;19947;-70
2023/09/29 11:27:14;;;;;;;;;;;25.00;99.90;;;;;;2616485;54;21130;-69
2023/09/29 11:29:44;;;;;;;;;;;25.20;99.90;;;;;;2616725;54;19958;-71
2023/09/29 11:32:18;;;;;;;;;;;25.40;99.90;;;;;;2617335;54;19958;-70
2023/09/29 11:34:48;;;;;;;;;;;25.60;99.90;;;;;;2616783;47;19946;-69
2023/09/29 11:37:20;;;;;;;;;;;25.80;99.90;;;;;;2616113;54;19951;-69
2023/09/29 11:39:52;;;;;;;;;;;25.90;99.90;;;;;;2616204;54;19945;-69
2023/09/29 11:42:23;;;;;;;;;;;26.10;99.90;;;;;;2613403;54;19950;-68
2023/09/29 11:44:53;;;;;;;;;;;26.10;99.90;;;;;;2616745;47;19976;-66
2023/09/29 11:47:23;;;;;;;;;;;26.00;99.90;;;;;;2617894;54;20064;-68
2023/09/29 11:49:52;;;;;;;;;;;26.00;99.90;;;;;;2615853;54;19946;-67
2023/09/29 11:52:22;;;;;;;;;;;25.90;99.90;;;;;;2617111;54;19957;-68
2023/09/29 11:54:56;;;;;;;;;;;25.80;99.90;;;;;;2616883;54;19946;-67
2023/09/29 11:57:25;;;;;;;;;;;25.60;99.90;;;;;;2618198;39;20443;-69
2023/09/29 11:59:55;;;;;;;;;;;25.60;99.90;;;;;;2616578;47;19954;-69
2023/09/29 12:02:25;;;;;;;;;;;25.40;99.90;;;;;;2617647;54;19938;-69
2023/09/29 12:04:54;;;;;;;;;;;25.30;99.90;;;;;;2616089;54;20042;-68
2023/09/29 12:07:25;;;;;;;;;;;25.20;99.90;;;;;;2617339;47;19953;-69
2023/09/29 12:09:58;;;;;;;;;;;25.10;99.90;;;;;;2616491;54;19974;-69
2023/09/29 12:12:28;;;;;;;;;;;24.90;99.90;;;;;;2617387;54;19954;-65
2023/09/29 12:14:57;;;;;;;;;;;24.90;99.90;;;;;;2616613;54;19995;-70
2023/09/29 12:17:28;;;;;;;;;;;24.70;99.90;;;;;;2617293;54;19946;-67
2023/09/29 12:19:58;;;;;;;;;;;24.60;99.90;;;;;;2615831;54;19965;-70
2023/09/29 12:22:31;;;;;;;;;;;24.50;99.90;;;;;;2616375;54;19951;-70
2023/09/29 12:25:03;;;;;;;;;;;24.50;99.90;;;;;;2617048;54;19945;-72
2023/09/29 12:27:34;;;;;;;;;;;24.30;99.90;;;;;;2617058;54;19939;-68
2023/09/29 12:30:07;;;;;;;;;;;24.20;99.90;;;;;;2616401;54;20450;-68
2023/09/29 12:32:37;;;;;;;;;;;24.20;99.90;;;;;;2617006;54;20481;-69
2023/09/29 12:35:09;;;;;;;;;;;24.10;99.90;;;;;;2616771;39;20316;-72
2023/09/29 12:37:40;;;;;;;;;;;24.00;99.90;;;;;;2617112;47;19953;-68
2023/09/29 12:40:13;;;;;;;;;;;23.90;99.90;;;;;;2616339;54;19946;-69
2023/09/29 12:42:46;;;;;;;;;;;23.80;99.90;;;;;;2615777;47;19953;-69
2023/09/29 12:45:17;;;;;;;;;;;23.60;99.90;;;;;;2615670;47;19943;-71
2023/09/29 12:47:48;;;;;;;;;;;23.60;99.90;;;;;;2617100;54;19946;-70
2023/09/29 12:50:18;;;;;;;;;;;23.50;99.90;;;;;;2615259;54;20016;-70
2023/09/29 12:52:51;;;;;;;;;;;23.50;99.90;;;;;;2616463;54;20644;-71
2023/09/29 12:55:24;;;;;;;;;;;23.40;99.90;;;;;;2617231;54;20044;-68
2023/09/29 12:57:54;;;;;;;;;;;23.40;99.90;;;;;;2617625;47;20677;-68
2023/09/29 13:00:28;;;;;;;;;;;23.30;99.90;;;;;;2616945;52;19947;-68
2023/09/29 13:03:04;;;;;;;;;;;23.30;99.90;;;;;;2617168;47;19950;-71
2023/09/29 13:05:35;;;;;;;;;;;23.30;99.90;;;;;;2617060;39;20341;-69
2023/09/29 13:08:10;;;;;;;;;;;23.30;99.90;;;;;;2618500;39;20345;-69
2023/09/29 13:10:42;;;;;;;;;;;23.30;99.90;;;;;;2617463;54;19946;-69
2023/09/29 13:13:17;;;;;;;;;;;23.30;99.90;;;;;;2617663;54;20426;-69
2023/09/29 13:15:47;;;;;;;;;;;23.40;99.90;;;;;;2616258;54;19954;-70
2023/09/29 13:18:17;;;;;;;;;;;23.30;99.90;;;;;;2617427;54;19945;-70
2023/09/29 13:20:48;;;;;;;;;;;23.30;99.90;;;;;;2616100;47;19953;-71
2023/09/29 13:23:18;;;;;;;;;;;23.30;99.90;;;;;;2617098;54;19976;-70
2023/09/29 13:25:51;;;;;;;;;;;23.40;99.90;;;;;;2617487;54;19951;-69
2023/09/29 13:28:21;;;;;;;;;;;23.30;99.90;;;;;;2617901;54;20030;-69
2023/09/29 13:30:51;;;;;;;;;;;23.40;99.90;;;;;;2614710;54;19974;-69
2023/09/29 13:33:26;;;;;;;;;;;23.30;99.90;;;;;;2616067;54;20042;-68
2023/09/29 13:35:56;;;;;;;;;;;23.40;99.90;;;;;;2617685;39;20381;-69
2023/09/29 13:38:26;;;;;;;;;;;23.30;99.90;;;;;;2617764;54;19939;-68
2023/09/29 13:40:59;;;;;;;;;;;23.40;99.90;;;;;;2617323;54;19939;-69
2023/09/29 13:43:28;;;;;;;;;;;23.40;99.90;;;;;;2617761;54;20449;-69
2023/09/29 13:45:58;;;;;;;;;;;23.50;99.90;;;;;;2618410;54;19977;-70
2023/09/29 13:48:28;;;;;;;;;;;23.40;99.90;;;;;;2618589;39;20342;-69
2023/09/29 13:50:58;;;;;;;;;;;23.40;99.90;;;;;;2617780;54;19979;-69
2023/09/29 13:53:28;;;;;;;;;;;23.40;99.90;;;;;;2617723;47;19939;-69
2023/09/29 13:56:00;;;;;;;;;;;23.40;99.90;;;;;;2617284;54;19938;-69
2023/09/29 13:58:30;;;;;;;;;;;23.40;99.90;;;;;;2616778;51;19938;-70
2023/09/29 14:01:00;;;;;;;;;;;23.30;99.90;;;;;;2617065;54;19939;-69
2023/09/29 14:03:30;;;;;;;;;;;23.30;99.90;;;;;;2616541;47;19946;-71
2023/09/29 14:05:59;;;;;;;;;;;23.20;99.90;;;;;;2617462;50;19947;-69
2023/09/29 14:08:29;;;;;;;;;;;23.20;99.90;;;;;;2615701;54;19946;-63
2023/09/29 14:11:02;;;;;;;;;;;23.30;99.90;;;;;;2614584;54;19951;-64
2023/09/29 14:13:31;;;;;;;;;;;23.30;99.90;;;;;;2617830;46;19954;-64
2023/09/29 14:16:01;;;;;;;;;;;23.40;99.90;;;;;;2617644;47;19951;-65
2023/09/29 14:18:31;;;;;;;;;;;23.50;99.90;;;;;;2616936;54;19939;-64
2023/09/29 14:21:01;;;;;;;;;;;23.60;99.90;;;;;;2617065;39;20318;-64
2023/09/29 14:23:31;;;;;;;;;;;23.70;99.90;;;;;;2617084;54;19994;-64
2023/09/29 14:26:10;;;;;;;;;;;23.80;99.90;;;;;;2617914;54;19962;-64
2023/09/29 14:28:40;;;;;;;;;;;24.20;99.90;;;;;;2617536;54;19946;-64
2023/09/29 14:31:12;;;;;;;;;;;24.90;99.90;;;;;;2617061;47;19969;-63
2023/09/29 14:33:43;;;;;;;;;;;25.70;99.90;;;;;;2617494;54;19947;-63
2023/09/29 14:36:13;;;;;;;;;;;26.70;99.90;;;;;;2617209;39;20349;-63
2023/09/29 14:38:43;;;;;;;;;;;27.80;99.90;;;;;;2617256;39;20595;-64
2023/09/29 14:41:16;;;;;;;;;;;28.60;99.90;;;;;;2616717;47;19962;-63
2023/09/29 14:43:46;;;;;;;;;;;29.20;99.90;;;;;;2617080;54;19946;-63
2023/09/29 14:46:16;;;;;;;;;;;29.30;99.90;;;;;;2617362;39;20350;-64
2023/09/29 14:48:46;;;;;;;;;;;29.00;99.90;;;;;;2617390;54;19959;-63
2023/09/29 14:51:16;;;;;;;;;;;28.80;99.90;;;;;;2617004;39;20341;-63
2023/09/29 14:53:46;;;;;;;;;;;28.50;99.90;;;;;;2617850;49;19951;-64
2023/09/29 14:56:18;;;;;;;;;;;28.10;99.90;;;;;;2617879;39;20370;-64
2023/09/29 14:58:48;;;;;;;;;;;27.80;99.90;;;;;;2617555;46;20400;-64
2023/09/29 15:01:18;;;;;;;;;;;27.50;99.90;;;;;;2616500;54;19938;-64
2023/09/29 15:03:48;;;;;;;;;;;27.50;99.90;;;;;;2617093;54;19939;-64
2023/09/29 15:06:19;;;;;;;;;;;27.30;99.90;;;;;;2617028;47;19939;-64
2023/09/29 15:08:49;;;;;;;;;;;27.10;99.90;;;;;;2617163;47;20429;-63
2023/09/29 15:11:22;;;;;;;;;;;27.00;99.90;;;;;;2616879;54;20116;-64
2023/09/29 15:13:51;;;;;;;;;;;27.00;99.90;;;;;;2617404;54;19939;-64
2023/09/29 15:16:23;;;;;;;;;;;26.90;99.90;;;;;;2616666;54;20444;-63
2023/09/29 15:18:57;;;;;;;;;;;26.80;99.90;;;;;;2617417;54;19976;-64
2023/09/29 15:21:27;;;;;;;;;;;26.70;99.90;;;;;;2616093;47;19998;-63
2023/09/29 15:23:57;;;;;;;;;;;26.70;99.90;;;;;;2616905;47;19954;-64
2023/09/29 15:26:30;;;;;;;;;;;26.70;99.90;;;;;;2616855;54;19953;-63
2023/09/29 15:29:00;;;;;;;;;;;27.00;99.90;;;;;;2617262;47;19939;-64
2023/09/29 15:31:31;;;;;;;;;;;27.30;99.90;;;;;;2616310;54;19946;-63
2023/09/29 15:34:00;;;;;;;;;;;27.70;99.90;;;;;;2617180;54;20464;-65
2023/09/29 15:36:33;;;;;;;;;;;27.90;99.90;;;;;;2616134;54;19946;-63
2023/09/29 15:39:06;;;;;;;;;;;28.30;99.90;;;;;;2616691;54;20053;-64
2023/09/29 15:41:38;;;;;;;;;;;28.60;99.90;;;;;;2617011;50;19951;-64
2023/09/29 15:44:08;;;;;;;;;;;28.40;99.90;;;;;;2616801;54;19946;-64
2023/09/29 15:46:38;;;;;;;;;;;27.90;99.90;;;;;;2616708;39;20006;-65
2023/09/29 15:49:07;;;;;;;;;;;27.40;99.90;;;;;;2617057;39;20369;-62
2023/09/29 15:51:37;;;;;;;;;;;27.00;99.90;;;;;;2616672;54;19986;-64
2023/09/29 15:54:08;;;;;;;;;;;26.70;99.90;;;;;;2616745;54;19947;-63
2023/09/29 15:56:40;;;;;;;;;;;26.30;99.90;;;;;;2616906;47;20002;-64
2023/09/29 15:59:10;;;;;;;;;;;26.00;99.90;;;;;;2616789;54;19939;-62
2023/09/29 16:01:39;;;;;;;;;;;25.70;99.90;;;;;;2615602;47;19947;-63
2023/09/29 16:04:09;;;;;;;;;;;25.40;99.90;;;;;;2616537;54;19954;-63
2023/09/29 16:06:39;;;;;;;;;;;25.10;99.90;;;;;;2614574;54;20481;-62
2023/09/29 16:09:09;;;;;;;;;;;24.90;99.90;;;;;;2618013;39;20321;-63
2023/09/29 16:11:42;;;;;;;;;;;24.80;99.90;;;;;;2617769;54;19973;-63
2023/09/29 16:14:12;;;;;;;;;;;24.50;99.90;;;;;;2618965;47;19946;-64
2023/09/29 16:16:43;;;;;;;;;;;24.40;99.90;;;;;;2620899;54;20503;-62
2023/09/29 16:19:13;;;;;;;;;;;24.20;99.90;;;;;;2620604;54;19947;-62
2023/09/29 16:21:42;;;;;;;;;;;24.00;99.90;;;;;;2619738;54;20437;-63
2023/09/29 16:24:12;;;;;;;;;;;23.90;99.90;;;;;;2618702;54;19938;-63